Time;durP1;ratioP1;P1;durP2;ratioP2;P2;SDS_P1;SDS_P2;PMS_P1;PMS_P2;Temp;Humidity;BMP_temperature;BMP_pressure;BME280_temperature;BME280_humidity;BME280_pressure;Samples;Min_cycle;Max_cycle;Signal;HPM_P1;HPM_P2
2022/02/20 00:01:06;;;;;;;;;2.25;1.00;;;;;12.39;55.99;101415.81;5074373;28;45429;-73
2022/02/20 00:03:32;;;;;;;;;0.75;0.25;;;;;12.40;56.03;101423.81;5074210;28;45356;-73
2022/02/20 00:05:57;;;;;;;;;0.00;0.00;;;;;12.46;56.32;101425.41;5067367;27;45377;-73
2022/02/20 00:08:22;;;;;;;;;0.00;0.00;;;;;12.47;56.11;101431.66;5074442;28;45410;-73
2022/02/20 00:10:48;;;;;;;;;0.00;0.00;;;;;12.42;56.10;101421.94;5070801;27;45487;-73
2022/02/20 00:13:13;;;;;;;;;3.00;1.00;;;;;12.48;56.14;101426.25;5076358;28;45764;-73
2022/02/20 00:15:38;;;;;;;;;2.00;1.00;;;;;12.45;56.24;101421.00;5068643;28;45913;-73
2022/02/20 00:18:04;;;;;;;;;0.50;0.50;;;;;12.50;56.26;101429.78;5070642;27;45484;-73
2022/02/20 00:20:30;;;;;;;;;0.50;0.50;;;;;12.47;56.09;101419.13;5069743;27;45385;-73
2022/02/20 00:23:01;;;;;;;;;0.50;0.50;;;;;12.50;56.53;101423.53;5060745;28;45375;-73
2022/02/20 00:25:31;;;;;;;;;2.00;0.75;;;;;12.46;56.59;101416.50;5069543;28;45443;-73
2022/02/20 00:27:56;;;;;;;;;1.50;1.00;;;;;12.51;56.31;101419.94;5064816;27;45414;-73
2022/02/20 00:30:23;;;;;;;;;0.25;0.25;;;;;12.51;56.47;101419.94;5071325;28;45356;-73
2022/02/20 00:32:48;;;;;;;;;0.00;0.00;;;;;12.53;56.45;101431.47;5071069;28;45366;-73
2022/02/20 00:35:13;;;;;;;;;0.75;0.75;;;;;12.52;56.69;101427.91;5076309;28;47495;-73
2022/02/20 00:37:39;;;;;;;;;0.00;0.00;;;;;12.53;56.64;101424.31;5071312;28;45255;-73
2022/02/20 00:40:05;;;;;;;;;0.25;0.25;;;;;12.53;56.75;101421.66;5064351;28;45416;-73
2022/02/20 00:42:31;;;;;;;;;1.50;1.00;;;;;12.50;56.83;101419.06;5067825;27;45451;-73
2022/02/20 00:44:56;;;;;;;;;0.75;0.00;;;;;12.52;56.85;101425.25;5062672;28;45373;-73
2022/02/20 00:47:22;;;;;;;;;2.00;1.00;;;;;12.51;56.91;101418.16;5069970;28;45452;-73
2022/02/20 00:49:47;;;;;;;;;0.00;0.00;;;;;12.44;56.62;101413.88;5077843;27;45319;-73
2022/02/20 00:52:12;;;;;;;;;0.75;0.75;;;;;12.52;56.87;101416.34;5065239;28;45363;-73
2022/02/20 00:54:37;;;;;;;;;1.25;1.00;;;;;12.53;56.96;101421.66;5071734;27;46658;-73
2022/02/20 00:57:03;;;;;;;;;1.00;1.00;;;;;12.52;56.52;101419.00;5067562;28;45357;-73
2022/02/20 00:59:28;;;;;;;;;1.00;0.00;;;;;12.56;57.09;101421.56;5077587;27;45445;-73
2022/02/20 01:01:54;;;;;;;;;3.00;0.00;;;;;12.60;57.21;101420.53;5061400;28;45458;-73
2022/02/20 01:04:19;;;;;;;;;0.00;0.00;;;;;12.63;57.09;101416.00;5074599;28;46993;-73
2022/02/20 01:06:45;;;;;;;;;0.00;0.00;;;;;12.62;57.10;101415.13;5070898;27;45377;-73
2022/02/20 01:09:10;;;;;;;;;1.00;0.00;;;;;12.56;57.17;101405.50;5062476;27;45227;-73
2022/02/20 01:11:35;;;;;;;;;0.00;0.00;;;;;12.64;56.99;101417.78;5061164;28;45215;-74
2022/02/20 01:14:01;;;;;;;;;1.50;1.50;;;;;12.65;57.32;101412.38;5064738;28;46207;-73
2022/02/20 01:16:26;;;;;;;;;2.50;2.00;;;;;12.59;57.40;101399.16;5080012;27;45400;-73
2022/02/20 01:18:51;;;;;;;;;1.75;1.00;;;;;12.67;57.31;101417.69;5076879;27;45217;-73
2022/02/20 01:21:17;;;;;;;;;1.75;1.75;;;;;12.68;57.36;101423.00;5065138;28;45324;-73
2022/02/20 01:23:42;;;;;;;;;2.00;2.00;;;;;12.68;57.24;101419.41;5071249;28;46248;-73
2022/02/20 01:26:07;;;;;;;;;1.50;1.00;;;;;12.65;57.37;101416.84;5060513;28;45379;-73
2022/02/20 01:28:33;;;;;;;;;3.00;2.00;;;;;12.67;57.43;101413.19;5071000;28;45389;-73
2022/02/20 01:30:58;;;;;;;;;1.00;1.00;;;;;12.66;57.79;101410.56;5058656;28;45456;-73
2022/02/20 01:33:24;;;;;;;;;0.25;0.25;;;;;12.69;57.50;101416.69;5071097;28;46171;-73
2022/02/20 01:35:49;;;;;;;;;2.25;1.25;;;;;12.70;57.62;101417.59;5060072;28;45215;-73
2022/02/20 01:38:15;;;;;;;;;2.25;1.00;;;;;12.68;57.69;101416.72;5077401;28;45137;-73
2022/02/20 01:40:42;;;;;;;;;1.00;1.00;;;;;12.67;57.80;101415.00;5076803;27;45624;-73
2022/02/20 01:43:10;;;;;;;;;1.00;1.00;;;;;12.64;57.78;101417.78;5061620;27;45409;-73
2022/02/20 01:45:38;;;;;;;;;3.00;0.75;;;;;12.68;57.74;101420.31;5059629;28;45304;-73
2022/02/20 01:48:04;;;;;;;;;1.00;1.00;;;;;12.67;57.69;101415.88;5069317;28;46571;-73
2022/02/20 01:50:29;;;;;;;;;1.25;0.25;;;;;12.72;57.72;101429.13;5067139;28;45297;-73
2022/02/20 01:52:54;;;;;;;;;2.00;0.50;;;;;12.72;57.77;101432.69;5071910;28;46276;-73
2022/02/20 01:55:20;;;;;;;;;1.50;1.00;;;;;12.66;57.84;101415.91;5077523;28;45140;-73
2022/02/20 01:57:46;;;;;;;;;2.00;0.25;;;;;12.70;57.90;101412.25;5078868;27;45529;-73
2022/02/20 02:00:15;;;;;;;;;2.25;1.00;;;;;12.70;57.75;101410.41;5077263;27;45440;-73
2022/02/20 02:02:41;;;;;;;;;0.00;0.00;;;;;12.69;58.08;101400.63;5068614;28;47078;-73
2022/02/20 02:05:07;;;;;;;;;2.00;1.00;;;;;12.72;57.94;101405.88;5079442;27;45709;-73
2022/02/20 02:07:33;;;;;;;;;2.00;2.00;;;;;12.71;58.12;101401.47;5082347;27;45211;-73
2022/02/20 02:09:58;;;;;;;;;1.00;1.00;;;;;12.69;58.14;101392.59;5075652;27;45724;-73
2022/02/20 02:12:23;;;;;;;;;3.50;1.50;;;;;12.70;57.92;101396.16;5078800;28;47967;-73
2022/02/20 02:14:52;;;;;;;;;2.50;1.75;;;;;12.74;58.09;101401.34;5068163;27;45342;-73
2022/02/20 02:17:18;;;;;;;;;1.25;1.25;;;;;12.70;57.90;101398.84;5064638;28;45493;-74
2022/02/20 02:19:43;;;;;;;;;1.00;1.00;;;;;12.70;58.12;101407.75;5067501;28;45528;-73
2022/02/20 02:22:09;;;;;;;;;3.00;2.00;;;;;12.60;58.18;101398.25;5074912;27;45385;-73
2022/02/20 02:24:34;;;;;;;;;1.25;1.25;;;;;12.72;58.03;101415.72;5062256;28;45496;-73
2022/02/20 02:27:01;;;;;;;;;4.00;1.00;;;;;12.73;58.02;101414.78;5070216;28;45540;-73
2022/02/20 02:29:27;;;;;;;;;1.00;1.00;;;;;12.70;57.91;101405.06;5068304;27;45479;-73
2022/02/20 02:31:52;;;;;;;;;1.00;1.00;;;;;12.75;58.17;101405.78;5069787;28;45401;-73
2022/02/20 02:34:19;;;;;;;;;2.75;1.00;;;;;12.76;58.07;101417.38;5063499;28;45212;-74
2022/02/20 02:36:49;;;;;;;;;3.75;1.00;;;;;12.72;57.99;101410.38;5079496;27;45517;-73
2022/02/20 02:39:15;;;;;;;;;0.00;0.00;;;;;12.71;58.01;101404.16;5079594;28;45437;-73
2022/02/20 02:41:41;;;;;;;;;1.00;1.00;;;;;12.72;58.24;101403.22;5066643;28;46173;-73
2022/02/20 02:44:06;;;;;;;;;0.00;0.00;;;;;12.72;58.22;101391.63;5066293;28;45270;-73
2022/02/20 02:46:32;;;;;;;;;1.00;1.00;;;;;12.75;58.13;101396.91;5063557;28;45744;-73
2022/02/20 02:48:58;;;;;;;;;2.75;0.75;;;;;12.75;57.99;101399.56;5075965;28;45313;-74
2022/02/20 02:51:23;;;;;;;;;4.00;1.25;;;;;12.78;57.67;101410.19;5064718;28;46179;-73
2022/02/20 02:53:49;;;;;;;;;2.00;1.00;;;;;12.78;58.16;101405.72;5072799;28;45332;-74
2022/02/20 02:56:14;;;;;;;;;2.50;2.00;;;;;12.75;58.02;101405.78;5071959;28;45322;-74
2022/02/20 02:58:41;;;;;;;;;4.00;1.25;;;;;12.76;57.75;101414.69;5062983;28;45203;-74
2022/02/20 03:01:07;;;;;;;;;4.00;1.00;;;;;12.76;58.13;101412.94;5070649;28;46259;-73
2022/02/20 03:03:32;;;;;;;;;3.75;1.75;;;;;12.77;58.17;101422.69;5067231;28;45579;-74
2022/02/20 03:05:59;;;;;;;;;1.75;1.00;;;;;12.71;58.06;101413.97;5061955;28;45430;-74
2022/02/20 03:08:25;;;;;;;;;3.50;1.75;;;;;12.73;57.86;101414.78;5074701;28;45302;-74
2022/02/20 03:10:50;;;;;;;;;1.00;1.00;;;;;12.70;58.31;101404.19;5065522;28;45331;-74
2022/02/20 03:13:15;;;;;;;;;1.50;1.00;;;;;12.71;58.12;101414.88;5062990;28;45170;-73
2022/02/20 03:15:41;;;;;;;;;2.00;2.00;;;;;12.75;58.17;101416.50;5062922;28;45357;-73
2022/02/20 03:18:06;;;;;;;;;2.75;1.50;;;;;12.75;58.43;101410.28;5061402;28;45370;-73
2022/02/20 03:20:31;;;;;;;;;3.25;1.00;;;;;12.74;58.03;101403.16;5066914;28;45326;-74
2022/02/20 03:22:57;;;;;;;;;2.75;1.00;;;;;12.71;58.14;101405.94;5078983;28;45251;-74
2022/02/20 03:25:22;;;;;;;;;2.00;1.00;;;;;12.71;58.21;101411.28;5072920;27;45429;-73
2022/02/20 03:27:48;;;;;;;;;2.00;1.00;;;;;12.69;58.43;101414.00;5075643;28;45520;-73
2022/02/20 03:30:13;;;;;;;;;1.50;0.50;;;;;12.67;58.38;101428.41;5080574;28;45409;-73
2022/02/20 03:32:38;;;;;;;;;3.00;2.00;;;;;12.54;58.33;101396.59;5077987;28;45208;-74
2022/02/20 03:35:04;;;;;;;;;2.75;1.75;;;;;12.61;58.56;101418.72;5070325;28;45409;-74
2022/02/20 03:37:30;;;;;;;;;3.00;1.50;;;;;12.62;58.53;101416.94;5077486;27;46024;-74
2022/02/20 03:39:56;;;;;;;;;2.00;2.00;;;;;12.54;58.64;101401.97;5067311;28;45453;-73
2022/02/20 03:42:21;;;;;;;;;1.50;1.50;;;;;12.64;58.71;101415.09;5071885;28;45373;-74
2022/02/20 03:44:46;;;;;;;;;4.00;3.00;;;;;12.65;58.70;101427.56;5062197;28;45405;-74
2022/02/20 03:47:12;;;;;;;;;4.00;2.00;;;;;12.63;58.64;101421.34;5064143;28;45514;-73
2022/02/20 03:49:37;;;;;;;;;2.50;2.50;;;;;12.65;58.54;101419.53;5078779;27;46145;-73
2022/02/20 03:52:03;;;;;;;;;2.50;2.00;;;;;12.61;58.86;101421.41;5075279;27;45357;-74
2022/02/20 03:54:28;;;;;;;;;2.75;1.50;;;;;12.63;58.90;101424.03;5078891;28;45327;-74
2022/02/20 03:56:53;;;;;;;;;2.75;2.75;;;;;12.54;59.00;101419.84;5065228;27;45560;-73
2022/02/20 03:59:19;;;;;;;;;3.00;1.25;;;;;12.53;58.78;101416.28;5070148;28;45341;-73
2022/02/20 04:01:44;;;;;;;;;2.00;1.00;;;;;12.46;58.81;101401.31;5076131;28;45315;-74
2022/02/20 04:04:11;;;;;;;;;2.00;0.00;;;;;12.50;59.05;101419.06;5071048;28;45253;-73
2022/02/20 04:06:36;;;;;;;;;2.25;1.50;;;;;12.56;59.02;101421.56;5076823;28;45986;-73
2022/02/20 04:09:02;;;;;;;;;2.25;1.00;;;;;12.53;59.07;101413.63;5073324;28;45408;-74
2022/02/20 04:11:28;;;;;;;;;3.25;1.00;;;;;12.51;59.06;101407.44;5072636;28;45520;-74
2022/02/20 04:13:53;;;;;;;;;2.50;1.00;;;;;12.44;59.13;101389.78;5065754;28;45296;-73
2022/02/20 04:16:18;;;;;;;;;3.25;2.00;;;;;12.51;59.18;101409.22;5062098;28;45397;-73
2022/02/20 04:18:44;;;;;;;;;1.50;1.50;;;;;12.48;59.16;101396.81;5076197;28;48265;-73
2022/02/20 04:21:09;;;;;;;;;3.00;3.00;;;;;12.54;59.38;101411.81;5067911;28;45349;-73
2022/02/20 04:23:35;;;;;;;;;3.00;2.00;;;;;12.48;59.08;101402.16;5068512;27;45861;-73
2022/02/20 04:26:01;;;;;;;;;2.50;2.50;;;;;12.54;59.19;101410.00;5070127;27;45429;-74
2022/02/20 04:28:28;;;;;;;;;1.00;1.00;;;;;12.50;59.02;101400.31;5061610;27;45479;-74
2022/02/20 04:30:54;;;;;;;;;2.00;2.00;;;;;12.47;59.27;101392.38;5065924;28;45573;-73
2022/02/20 04:33:19;;;;;;;;;2.00;2.00;;;;;12.54;59.15;101403.78;5062431;27;45382;-74
2022/02/20 04:35:45;;;;;;;;;2.50;1.00;;;;;12.48;59.52;101404.84;5061325;28;45331;-74
2022/02/20 04:38:10;;;;;;;;;2.50;1.25;;;;;12.52;59.31;101419.88;5074028;27;46249;-73
2022/02/20 04:40:35;;;;;;;;;1.00;1.00;;;;;12.48;59.21;101404.84;5070227;27;45245;-73
2022/02/20 04:43:01;;;;;;;;;1.00;1.00;;;;;12.48;59.35;101398.59;5062029;27;45893;-73
2022/02/20 04:45:26;;;;;;;;;3.00;1.75;;;;;12.53;59.25;101405.59;5059927;28;45602;-74
2022/02/20 04:47:51;;;;;;;;;2.00;2.00;;;;;12.52;59.55;101397.59;5061678;27;46409;-73
2022/02/20 04:50:17;;;;;;;;;2.00;1.00;;;;;12.45;59.36;101383.50;5061371;28;45298;-73
2022/02/20 04:52:42;;;;;;;;;2.00;2.00;;;;;12.46;59.76;101374.53;5074014;28;45301;-74
2022/02/20 04:55:08;;;;;;;;;1.75;0.75;;;;;12.47;59.45;101364.72;5072766;27;45223;-73
2022/02/20 04:57:36;;;;;;;;;4.00;2.75;;;;;12.38;59.74;101350.69;5072610;28;47026;-73
2022/02/20 05:00:06;;;;;;;;;4.00;3.25;;;;;12.42;59.46;101354.13;5060241;28;45476;-73
2022/02/20 05:02:31;;;;;;;;;3.75;1.75;;;;;12.37;59.54;101348.91;5071615;28;45254;-74
2022/02/20 05:04:57;;;;;;;;;2.25;1.25;;;;;12.32;59.65;101341.97;5060374;28;45342;-73
2022/02/20 05:07:22;;;;;;;;;2.00;1.00;;;;;12.35;59.49;101347.22;5059972;28;46016;-73
2022/02/20 05:09:47;;;;;;;;;6.50;2.00;;;;;12.43;59.89;101358.59;5060389;28;45212;-73
2022/02/20 05:12:13;;;;;;;;;1.75;1.25;;;;;12.43;59.81;101358.59;5074038;28;45207;-74
2022/02/20 05:14:38;;;;;;;;;1.75;1.50;;;;;12.41;59.51;101358.63;5078591;28;45302;-75
2022/02/20 05:17:03;;;;;;;;;1.00;1.00;;;;;12.38;59.88;101348.00;5077221;28;48298;-75
2022/02/20 05:19:29;;;;;;;;;2.00;0.75;;;;;12.41;59.83;101355.06;5068547;28;45208;-75
2022/02/20 05:21:54;;;;;;;;;4.00;1.00;;;;;12.43;59.92;101353.22;5076221;27;45230;-75
2022/02/20 05:24:20;;;;;;;;;3.00;1.25;;;;;12.40;59.65;101347.97;5064972;27;47193;-75
2022/02/20 05:26:45;;;;;;;;;2.25;1.00;;;;;12.37;59.70;101338.22;5061046;28;45282;-75
2022/02/20 05:29:11;;;;;;;;;2.00;1.50;;;;;12.32;59.88;101328.56;5074008;27;45475;-75
2022/02/20 05:31:37;;;;;;;;;3.75;2.00;;;;;12.37;59.99;101330.19;5066325;28;45380;-75
2022/02/20 05:34:02;;;;;;;;;3.00;2.00;;;;;12.38;60.04;101334.63;5060951;28;45228;-75
2022/02/20 05:36:27;;;;;;;;;3.75;2.50;;;;;12.36;59.92;101346.28;5072486;27;46305;-75
2022/02/20 05:38:53;;;;;;;;;4.00;2.00;;;;;12.35;60.05;101341.88;5070849;28;45404;-75
2022/02/20 05:41:20;;;;;;;;;1.00;1.00;;;;;12.39;60.05;101356.91;5063353;28;45351;-75
2022/02/20 05:43:45;;;;;;;;;4.50;1.50;;;;;12.33;60.10;101355.31;5059928;28;45362;-75
2022/02/20 05:46:10;;;;;;;;;1.00;1.00;;;;;12.40;59.97;101358.69;5059117;28;46482;-75
2022/02/20 05:48:36;;;;;;;;;1.25;1.25;;;;;12.37;59.86;101364.13;5059654;28;45791;-75
2022/02/20 05:51:02;;;;;;;;;2.50;1.00;;;;;12.40;59.95;101377.41;5063562;28;45278;-75
2022/02/20 05:53:28;;;;;;;;;3.00;1.50;;;;;12.40;60.09;101388.13;5062230;28;45461;-75
2022/02/20 05:55:53;;;;;;;;;4.00;1.00;;;;;12.38;59.97;101382.81;5059228;28;46195;-75
2022/02/20 05:58:18;;;;;;;;;1.00;0.00;;;;;12.41;59.99;101389.88;5059495;28;45429;-75
2022/02/20 06:00:44;;;;;;;;;2.25;1.00;;;;;12.41;60.08;101393.44;5061642;28;45218;-75
2022/02/20 06:03:09;;;;;;;;;5.25;1.00;;;;;12.38;60.17;101384.63;5071724;28;45246;-75
2022/02/20 06:05:35;;;;;;;;;1.50;1.00;;;;;12.36;59.92;101383.75;5064372;27;45895;-75
2022/02/20 06:08:00;;;;;;;;;2.00;1.00;;;;;12.39;59.91;101387.22;5060589;28;45318;-75
2022/02/20 06:10:25;;;;;;;;;1.50;1.00;;;;;12.38;60.05;101396.19;5061712;28;45867;-75
2022/02/20 06:12:51;;;;;;;;;3.25;1.75;;;;;12.39;59.97;101389.03;5078297;28;45353;-75
2022/02/20 06:15:16;;;;;;;;;1.50;1.50;;;;;12.35;60.02;101377.53;5066558;27;45295;-75
2022/02/20 06:17:41;;;;;;;;;1.00;1.00;;;;;12.42;60.34;101378.25;5078658;27;45428;-75
2022/02/20 06:20:08;;;;;;;;;3.25;1.00;;;;;12.30;60.59;101358.06;5065282;27;45311;-75
2022/02/20 06:22:34;;;;;;;;;3.00;2.00;;;;;12.30;60.45;101365.22;5076838;27;45492;-75
2022/02/20 06:24:59;;;;;;;;;2.75;1.00;;;;;12.36;60.14;101357.00;5076247;27;46150;-75
2022/02/20 06:27:25;;;;;;;;;2.50;1.00;;;;;12.37;59.99;101364.13;5057977;28;45390;-75
2022/02/20 06:29:50;;;;;;;;;1.50;1.00;;;;;12.35;60.26;101350.78;5062583;28;45286;-75
2022/02/20 06:32:15;;;;;;;;;0.75;0.75;;;;;12.36;60.16;101341.84;5074486;27;45458;-75
2022/02/20 06:34:41;;;;;;;;;3.25;1.00;;;;;12.36;60.20;101341.84;5079163;27;46235;-75
2022/02/20 06:37:06;;;;;;;;;0.00;0.00;;;;;12.41;60.54;101355.06;5069087;27;45427;-75
2022/02/20 06:39:32;;;;;;;;;2.50;1.25;;;;;12.43;60.51;101355.91;5073577;27;45241;-75
2022/02/20 06:41:58;;;;;;;;;4.00;1.00;;;;;12.34;60.42;101348.13;5070663;28;45301;-75
2022/02/20 06:44:23;;;;;;;;;1.25;1.00;;;;;12.37;60.55;101346.25;5074619;27;48339;-75
2022/02/20 06:46:48;;;;;;;;;1.00;0.50;;;;;12.44;60.43;101360.31;5068074;28;45598;-75
2022/02/20 06:49:14;;;;;;;;;5.75;1.00;;;;;12.46;60.55;101350.44;5061798;28;45230;-75
2022/02/20 06:51:39;;;;;;;;;3.00;1.00;;;;;12.45;60.38;101351.38;5070861;27;45287;-75
2022/02/20 06:54:04;;;;;;;;;2.25;1.00;;;;;12.44;60.52;101348.75;5073825;28;46048;-75
2022/02/20 06:56:30;;;;;;;;;3.25;0.25;;;;;12.41;60.70;101345.25;5072306;28;45432;-75
2022/02/20 06:58:56;;;;;;;;;2.00;0.00;;;;;12.47;60.56;101354.88;5065639;28;45373;-75
2022/02/20 07:01:22;;;;;;;;;2.00;1.00;;;;;12.46;60.49;101350.44;5065761;28;45341;-75
2022/02/20 07:03:47;;;;;;;;;1.25;0.75;;;;;12.45;60.65;101350.50;5064239;28;46119;-75
2022/02/20 07:06:12;;;;;;;;;1.00;1.00;;;;;12.43;60.52;101347.88;5062060;28;45361;-75
2022/02/20 07:08:38;;;;;;;;;1.00;1.00;;;;;12.43;60.63;101342.53;5075492;27;45521;-75
2022/02/20 07:11:03;;;;;;;;;2.50;1.00;;;;;12.42;60.87;101344.31;5076978;27;45440;-75
2022/02/20 07:13:29;;;;;;;;;2.25;2.00;;;;;12.41;60.69;101345.25;5079047;27;47321;-75
2022/02/20 07:15:54;;;;;;;;;2.00;0.75;;;;;12.46;60.71;101366.50;5068877;27;45460;-75
2022/02/20 07:18:20;;;;;;;;;1.00;1.00;;;;;12.43;60.78;101371.97;5073498;28;45390;-80
2022/02/20 07:20:45;;;;;;;;;1.00;1.00;;;;;12.42;61.12;101383.59;5068664;27;45520;-76
2022/02/20 07:23:11;;;;;;;;;3.25;3.00;;;;;12.46;60.96;101390.59;5062770;27;46026;-76
2022/02/20 07:25:37;;;;;;;;;5.00;1.50;;;;;12.47;61.09;101397.72;5061444;28;45396;-75
2022/02/20 07:28:03;;;;;;;;;2.00;1.25;;;;;12.36;60.99;101367.69;5065405;28;45314;-75
2022/02/20 07:30:28;;;;;;;;;5.00;1.00;;;;;12.48;60.75;101394.13;5078923;27;45316;-75
2022/02/20 07:33:00;;;;;;;;;3.25;1.50;;;;;12.52;60.84;101394.91;5078350;27;45430;-75
2022/02/20 07:35:26;;;;;;;;;2.75;1.00;;;;;12.42;61.03;101370.22;5064992;28;45692;-76
2022/02/20 07:37:51;;;;;;;;;1.50;1.00;;;;;12.49;61.15;101386.97;5070975;28;45226;-75
2022/02/20 07:40:17;;;;;;;;;6.00;1.25;;;;;12.51;61.34;101382.44;5068557;28;45360;-75
2022/02/20 07:42:43;;;;;;;;;1.00;1.00;;;;;12.52;60.96;101392.22;5072405;28;45539;-75
2022/02/20 07:45:09;;;;;;;;;2.00;2.00;;;;;12.56;60.92;101388.53;5071946;27;45680;-76
2022/02/20 07:47:52;;;;;;;;;5.00;2.00;;;;;12.57;61.08;101399.19;5069495;28;45445;-75
2022/02/20 07:50:28;;;;;;;;;1.50;1.25;;;;;12.58;61.10;101406.31;5063397;28;45473;-75
2022/02/20 07:52:54;;;;;;;;;3.00;0.00;;;;;12.58;61.06;101416.16;5080154;27;47158;-75
2022/02/20 07:55:20;;;;;;;;;3.25;1.75;;;;;12.57;61.45;101417.94;5078607;27;45428;-76
2022/02/20 07:57:47;;;;;;;;;5.25;1.00;;;;;12.62;61.09;101424.97;5071691;28;45245;-75
2022/02/20 08:00:18;;;;;;;;;3.50;2.00;;;;;12.60;61.21;101431.25;5075111;28;45360;-75
2022/02/20 08:02:44;;;;;;;;;4.75;3.00;;;;;12.62;61.27;101447.28;5092825;27;47471;-76
2022/02/20 08:05:09;;;;;;;;;3.00;1.75;;;;;12.65;61.18;101449.00;5060902;28;45432;-76
2022/02/20 08:07:35;;;;;;;;;2.00;1.00;;;;;12.66;61.35;101440.03;5068038;28;45215;-76
2022/02/20 08:10:01;;;;;;;;;4.00;2.25;;;;;12.59;61.35;101436.66;5063643;28;45733;-77
2022/02/20 08:12:27;;;;;;;;;3.25;2.00;;;;;12.66;61.28;101437.34;5078194;27;47211;-79
2022/02/20 08:14:52;;;;;;;;;6.00;4.75;;;;;12.67;61.40;101426.59;5061722;28;45418;-78
2022/02/20 08:17:17;;;;;;;;;1.00;1.00;;;;;12.67;61.16;101405.16;5063399;28;45460;-78
2022/02/20 08:19:43;;;;;;;;;2.50;1.00;;;;;12.65;61.32;101390.94;5062143;28;45444;-78
2022/02/20 08:22:08;;;;;;;;;1.00;1.00;;;;;12.62;61.65;101376.78;5061405;28;46259;-78
2022/02/20 08:24:33;;;;;;;;;2.00;1.00;;;;;12.71;61.60;101398.78;5079318;28;45452;-78
2022/02/20 08:26:59;;;;;;;;;4.00;1.00;;;;;12.68;61.61;101406.03;5079943;27;45255;-77
2022/02/20 08:29:24;;;;;;;;;4.00;1.00;;;;;12.76;61.19;101414.69;5059145;28;45540;-78
2022/02/20 08:31:50;;;;;;;;;1.75;1.00;;;;;12.75;61.15;101412.97;5076441;28;47033;-78
2022/02/20 08:34:15;;;;;;;;;1.00;1.00;;;;;12.74;61.26;101401.34;5067634;28;45541;-83
2022/02/20 08:36:41;;;;;;;;;5.50;1.75;;;;;12.82;61.23;101394.91;5067229;28;45391;-77
2022/02/20 08:39:07;;;;;;;;;2.00;1.00;;;;;12.87;61.19;101393.81;5063323;28;45358;-79
2022/02/20 08:41:35;;;;;;;;;4.00;2.25;;;;;12.77;61.48;101368.25;5073443;28;45199;-79
2022/02/20 08:44:00;;;;;;;;;1.00;1.00;;;;;12.86;61.32;101392.06;5060770;27;45507;-79
2022/02/20 08:46:26;;;;;;;;;2.25;1.75;;;;;12.90;61.33;101393.72;5065947;27;45433;-79
2022/02/20 08:48:51;;;;;;;;;3.00;2.00;;;;;12.89;61.48;101375.88;5065459;27;45518;-80
2022/02/20 08:51:16;;;;;;;;;3.50;1.25;;;;;12.90;61.37;101384.81;5065031;28;49824;-81
2022/02/20 08:53:42;;;;;;;;;0.75;0.75;;;;;12.90;61.53;101401.75;5068397;28;45408;-80
2022/02/20 08:56:08;;;;;;;;;1.75;1.75;;;;;12.92;61.47;101393.69;5075137;27;45428;-82
2022/02/20 08:58:35;;;;;;;;;2.75;2.00;;;;;12.91;61.36;101383.88;5070232;28;45330;-81
2022/02/20 09:01:02;;;;;;;;;1.25;1.25;;;;;12.95;61.40;101389.09;5074519;27;47059;-81
2022/02/20 09:03:28;;;;;;;;;1.50;1.00;;;;;12.93;61.28;101374.88;5064438;28;45832;-81
2022/02/20 09:05:53;;;;;;;;;5.25;2.00;;;;;12.92;61.45;101366.88;5069360;28;45333;-76
2022/02/20 09:08:18;;;;;;;;;2.75;1.00;;;;;12.91;61.51;101376.75;5065345;28;45335;-76
2022/02/20 09:10:45;;;;;;;;;1.25;0.75;;;;;12.89;61.48;101386.59;5064374;27;45334;-76
2022/02/20 09:13:11;;;;;;;;;1.75;1.00;;;;;12.74;61.25;101352.28;5064960;27;45504;-75
2022/02/20 09:15:36;;;;;;;;;4.00;2.00;;;;;12.91;61.38;101387.44;5070670;28;45375;-76
2022/02/20 09:18:03;;;;;;;;;3.25;1.75;;;;;12.88;61.40;101366.13;5067223;28;45474;-78
2022/02/20 09:20:29;;;;;;;;;3.00;2.50;;;;;13.03;61.41;101386.19;5088645;27;47962;-72
2022/02/20 09:22:54;;;;;;;;;3.00;1.00;;;;;13.01;61.20;101360.34;5077897;27;45353;-83
2022/02/20 09:25:20;;;;;;;;;1.75;1.50;;;;;13.11;61.10;101381.44;5075983;27;45755;-78
2022/02/20 09:27:46;;;;;;;;;4.75;1.00;;;;;13.13;61.30;101381.38;5069157;28;45325;-75
2022/02/20 09:30:11;;;;;;;;;3.25;2.50;;;;;13.11;61.42;101373.41;5061847;28;46685;-77
2022/02/20 09:32:37;;;;;;;;;2.00;2.00;;;;;13.17;61.44;101366.97;5077814;27;45329;-77
2022/02/20 09:35:02;;;;;;;;;2.25;1.50;;;;;13.13;61.52;101370.66;5065129;27;45137;-76
2022/02/20 09:37:28;;;;;;;;;2.00;1.00;;;;;13.18;61.32;101366.03;5067892;28;45497;-76
2022/02/20 09:39:54;;;;;;;;;2.25;1.00;;;;;13.21;61.33;101363.22;5061237;28;45991;-76
2022/02/20 09:42:20;;;;;;;;;2.50;1.50;;;;;13.24;61.23;101373.84;5078399;27;45373;-76
2022/02/20 09:44:45;;;;;;;;;0.75;0.75;;;;;13.28;61.22;101372.84;5071934;27;45382;-76
2022/02/20 09:47:13;;;;;;;;;1.75;1.75;;;;;13.27;61.25;101349.63;5089531;27;45663;-76
2022/02/20 09:49:40;;;;;;;;;1.75;1.25;;;;;13.24;61.30;101330.97;5076350;27;46087;-76
2022/02/20 09:52:05;;;;;;;;;3.75;1.25;;;;;13.32;61.15;101333.44;5071625;28;45646;-72
2022/02/20 09:54:31;;;;;;;;;3.00;1.00;;;;;13.33;61.49;101329.78;5072133;27;45477;-76
2022/02/20 09:56:57;;;;;;;;;4.00;0.00;;;;;13.34;61.41;101329.75;5074722;27;45522;-76
2022/02/20 09:59:23;;;;;;;;;1.00;1.00;;;;;13.28;61.33;101296.88;5076897;28;47383;-87
2022/02/20 10:02:03;;;;;;;;;2.25;1.00;;;;;13.44;61.08;101332.13;5066949;28;45459;-77
2022/02/20 10:04:48;;;;;;;;;1.00;1.00;;;;;13.38;60.99;101321.59;5072681;28;45389;-80
2022/02/20 10:07:38;;;;;;;;;2.00;2.00;;;;;13.46;61.09;101336.50;5071876;28;45484;-75
2022/02/20 10:10:20;;;;;;;;;1.25;0.50;;;;;13.48;60.94;101355.22;5069082;28;45494;-81
2022/02/20 10:12:55;;;;;;;;;3.00;2.00;;;;;13.49;60.83;101343.56;5068445;28;46336;-85
2022/02/20 10:15:28;;;;;;;;;3.75;2.25;;;;;13.59;61.19;101349.47;5083082;27;45660;-76
2022/02/20 10:18:08;;;;;;;;;2.50;2.00;;;;;13.62;60.90;101355.63;5077834;28;46290;-81
2022/02/20 10:20:33;;;;;;;;;2.25;1.00;;;;;13.59;61.46;101346.81;5062042;27;45409;-86
2022/02/20 10:23:04;;;;;;;;;2.50;0.50;;;;;13.65;60.68;101354.66;5072277;28;45441;-87
2022/02/20 10:25:30;;;;;;;;;1.25;0.00;;;;;13.68;60.71;101352.72;5067305;28;45420;-72
2022/02/20 10:27:55;;;;;;;;;2.25;1.25;;;;;13.74;60.58;101364.16;5073539;28;45420;-70
2022/02/20 10:30:24;;;;;;;;;2.50;1.00;;;;;13.77;60.59;101356.00;5068934;27;45421;-73
2022/02/20 10:33:04;;;;;;;;;1.50;1.50;;;;;13.82;60.44;101343.31;5065558;27;45651;-72
2022/02/20 10:35:33;;;;;;;;;1.50;1.00;;;;;13.83;60.65;101340.56;5068020;27;45398;-76
2022/02/20 10:38:05;;;;;;;;;2.00;2.00;;;;;13.92;60.70;101327.75;5072904;27;45168;-75
2022/02/20 10:40:31;;;;;;;;;1.00;1.00;;;;;13.93;60.73;101332.16;5077364;27;47164;-79
2022/02/20 10:43:00;;;;;;;;;2.00;0.00;;;;;13.99;60.25;101340.00;5073961;27;46060;-71
2022/02/20 10:45:35;;;;;;;;;1.25;1.00;;;;;14.02;60.07;101343.44;5061170;27;45343;-71
2022/02/20 10:48:03;;;;;;;;;2.00;2.00;;;;;14.04;60.12;101346.94;5071192;27;45498;-71
2022/02/20 10:50:31;;;;;;;;;2.25;0.75;;;;;14.06;59.67;101350.44;5064196;27;46443;-73
2022/02/20 10:53:10;;;;;;;;;4.25;1.00;;;;;14.08;59.61;101353.06;5063125;27;45402;-74
2022/02/20 10:55:40;;;;;;;;;1.00;0.75;;;;;14.10;59.47;101356.59;5066419;27;45362;-73
2022/02/20 10:58:15;;;;;;;;;2.75;1.75;;;;;14.09;59.28;101353.00;5061698;27;45712;-73
2022/02/20 11:00:48;;;;;;;;;1.00;0.00;;;;;14.12;59.56;101349.34;5079774;27;46033;-73
2022/02/20 11:03:14;;;;;;;;;1.00;1.00;;;;;14.16;59.31;101334.84;5080590;27;45475;-74
2022/02/20 11:05:40;;;;;;;;;3.25;1.00;;;;;14.16;59.17;101339.34;5081261;27;45348;-73
2022/02/20 11:08:07;;;;;;;;;3.50;1.75;;;;;14.18;59.06;101324.97;5080540;27;45613;-73
2022/02/20 11:10:33;;;;;;;;;4.00;1.00;;;;;14.20;59.14;101312.34;5063009;27;45673;-73
2022/02/20 11:12:59;;;;;;;;;2.00;1.00;;;;;14.19;58.88;101309.72;5080717;27;45743;-74
2022/02/20 11:15:27;;;;;;;;;8.00;1.50;;;;;14.14;58.98;101285.72;5080518;27;45400;-71
2022/02/20 11:17:56;;;;;;;;;1.25;0.25;;;;;14.24;59.19;101307.72;5080870;27;45464;-72
2022/02/20 11:20:22;;;;;;;;;1.75;1.00;;;;;14.27;58.96;101299.56;5078253;28;46182;-72